Time;durP1;ratioP1;P1;durP2;ratioP2;P2;SDS_P1;SDS_P2;PMS_P1;PMS_P2;Temp;Humidity;BMP_temperature;BMP_pressure;BME280_temperature;BME280_humidity;BME280_pressure;Samples;Min_cycle;Max_cycle;Signal;HPM_P1;HPM_P2
2022/08/19 00:00:27;;;;;;;23.40;21.05;;;;;;;17.12;98.94;101256.97;5008586;28;20484;-68
2022/08/19 00:02:53;;;;;;;22.73;20.52;;;;;;;17.12;99.22;101264.47;5024961;28;20021;-67
2022/08/19 00:05:19;;;;;;;22.77;20.38;;;;;;;17.09;98.98;101256.69;5026174;28;20047;-67
2022/08/19 00:07:44;;;;;;;22.95;20.75;;;;;;;17.14;99.83;101255.91;5026199;28;20029;-68
2022/08/19 00:10:12;;;;;;;23.60;21.20;;;;;;;17.16;99.50;101262.00;5025367;28;20048;-67
2022/08/19 00:12:37;;;;;;;24.48;22.08;;;;;;;17.19;99.10;101261.50;5025953;28;20108;-67
2022/08/19 00:15:11;;;;;;;25.15;22.63;;;;;;;17.21;99.53;101253.72;5020673;28;20690;-68
2022/08/19 00:17:37;;;;;;;26.95;24.35;;;;;;;17.25;99.53;101252.09;5004194;28;20044;-67
2022/08/19 00:20:03;;;;;;;26.63;23.83;;;;;;;17.20;99.11;101264.00;5005380;28;20030;-67
2022/08/19 00:22:28;;;;;;;25.50;22.98;;;;;;;17.16;98.74;101256.47;5005073;28;20018;-67
2022/08/19 00:24:54;;;;;;;27.33;24.40;;;;;;;17.15;98.80;101260.34;5004479;28;20574;-67
2022/08/19 00:27:19;;;;;;;26.23;23.63;;;;;;;17.14;99.06;101259.50;5005369;28;20218;-67
2022/08/19 00:29:44;;;;;;;25.05;21.75;;;;;;;17.09;99.19;101256.69;5005839;28;20021;-67
2022/08/19 00:32:10;;;;;;;27.00;24.20;;;;;;;17.08;99.57;101264.19;5004153;28;20143;-68
2022/08/19 00:34:35;;;;;;;27.02;24.20;;;;;;;17.05;99.25;101256.38;5019850;28;20425;-67
2022/08/19 00:37:01;;;;;;;27.23;24.30;;;;;;;17.07;99.64;101262.47;5024256;28;20094;-67
2022/08/19 00:39:26;;;;;;;23.73;20.05;;;;;;;17.05;98.80;101266.63;5025081;28;20022;-67
2022/08/19 00:41:52;;;;;;;23.70;20.80;;;;;;;16.98;98.66;101260.44;5024038;28;20021;-67
2022/08/19 00:44:23;;;;;;;23.95;21.20;;;;;;;16.91;99.25;101271.78;5025401;28;20056;-67
2022/08/19 00:46:52;;;;;;;25.27;22.52;;;;;;;16.89;99.93;101270.38;5024419;28;20349;-67
2022/08/19 00:49:32;;;;;;;24.38;21.70;;;;;;;16.92;100.00;101265.13;5007096;28;20010;-67
2022/08/19 00:52:08;;;;;;;26.27;22.10;;;;;;;16.88;99.58;101258.44;5022662;28;20024;-68
2022/08/19 00:54:36;;;;;;;25.10;22.35;;;;;;;16.91;99.38;101263.44;5025443;28;20056;-68
2022/08/19 00:57:06;;;;;;;26.55;22.00;;;;;;;16.85;99.81;101256.19;5007374;28;20025;-67
2022/08/19 00:59:36;;;;;;;25.55;22.88;;;;;;;16.80;100.00;101258.91;5025377;28;20033;-67
2022/08/19 01:02:03;;;;;;;25.08;22.35;;;;;;;16.78;99.99;101258.34;5040604;22;20064;-67
2022/08/19 01:04:28;;;;;;;26.15;23.45;;;;;;;16.83;100.00;101252.84;5043498;28;20530;-68
2022/08/19 01:06:53;;;;;;;28.25;25.25;;;;;;;16.81;100.00;101247.53;5043852;28;20032;-67
2022/08/19 01:09:19;;;;;;;27.98;24.98;;;;;;;16.82;100.00;101257.53;5044731;28;20328;-67
2022/08/19 01:11:44;;;;;;;27.38;23.52;;;;;;;16.81;100.00;101264.19;5044452;28;20029;-68
2022/08/19 01:14:11;;;;;;;28.98;25.88;;;;;;;16.79;100.00;101263.63;5044297;28;20174;-68
2022/08/19 01:16:39;;;;;;;27.90;22.50;;;;;;;16.77;100.00;101265.81;5043600;28;20167;-67
2022/08/19 01:19:14;;;;;;;27.30;24.13;;;;;;;16.79;100.00;101273.88;5044223;28;20442;-68
2022/08/19 01:21:47;;;;;;;29.13;25.25;;;;;;;16.80;100.00;101268.06;5043287;28;20057;-68
2022/08/19 01:24:12;;;;;;;29.15;24.35;;;;;;;16.79;100.00;101265.56;5043873;28;20053;-67
2022/08/19 01:26:43;;;;;;;32.42;25.80;;;;;;;16.84;100.00;101263.69;5043984;28;20071;-68
2022/08/19 01:29:09;;;;;;;29.13;25.65;;;;;;;16.86;100.00;101258.69;5043888;28;20063;-67
2022/08/19 01:31:34;;;;;;;28.70;25.60;;;;;;;16.86;100.00;101263.41;5043556;28;21002;-68
2022/08/19 01:34:01;;;;;;;31.90;25.75;;;;;;;16.83;100.00;101261.16;5042970;28;20025;-68
2022/08/19 01:36:33;;;;;;;32.33;26.67;;;;;;;16.83;100.00;101263.94;5043287;28;20021;-67
2022/08/19 01:38:59;;;;;;;33.45;27.67;;;;;;;16.80;100.00;101265.28;5041549;28;20576;-67
2022/08/19 01:41:25;;;;;;;31.13;26.52;;;;;;;16.80;100.00;101258.91;5043935;28;20427;-67
2022/08/19 01:43:52;;;;;;;33.38;27.30;;;;;;;16.79;100.00;101260.00;5043327;28;20056;-67
2022/08/19 01:46:18;;;;;;;31.05;26.23;;;;;;;16.81;100.00;101260.56;5043231;28;20044;-67
2022/08/19 01:48:45;;;;;;;31.63;26.75;;;;;;;16.80;100.00;101262.53;5042639;28;20024;-67
2022/08/19 01:51:13;;;;;;;33.20;28.23;;;;;;;16.78;100.00;101252.78;5043158;28;20041;-67
2022/08/19 01:53:39;;;;;;;30.80;25.02;;;;;;;16.72;100.00;101256.59;5043760;28;20029;-68
2022/08/19 01:56:06;;;;;;;33.30;26.08;;;;;;;16.70;100.00;101253.22;5042183;28;20116;-68
2022/08/19 01:58:43;;;;;;;30.35;25.10;;;;;;;16.61;100.00;101259.22;5042036;28;20025;-67
2022/08/19 02:01:08;;;;;;;32.72;25.95;;;;;;;16.59;100.00;101263.38;5042297;28;20033;-67
2022/08/19 02:03:37;;;;;;;35.58;25.80;;;;;;;16.50;100.00;101254.69;5041220;28;20033;-67
2022/08/19 02:06:03;;;;;;;30.67;23.70;;;;;;;16.38;100.00;101261.47;5040843;28;20029;-67
2022/08/19 02:08:29;;;;;;;32.67;22.55;;;;;;;16.33;100.00;101263.09;5042394;28;20025;-67
2022/08/19 02:10:55;;;;;;;30.83;21.63;;;;;;;16.27;100.00;101266.03;5041986;28;20025;-67
2022/08/19 02:13:24;;;;;;;28.85;23.13;;;;;;;16.21;100.00;101264.31;5058281;28;20024;-68
2022/08/19 02:15:49;;;;;;;;;;;;;;;16.39;99.65;101275.06;5062844;28;20030;-67
2022/08/19 02:18:14;;;;;;;31.23;21.53;;;;;;;16.23;100.00;101274.06;5061641;28;19912;-68
2022/08/19 02:20:42;;;;;;;34.60;27.10;;;;;;;16.23;100.00;101270.44;5062755;28;20033;-67
2022/08/19 02:23:08;;;;;;;;;;;;;;;16.38;99.93;101278.94;5062685;28;20028;-68
2022/08/19 02:25:33;;;;;;;31.35;23.55;;;;;;;16.25;100.00;101280.16;5062828;28;19919;-68
2022/08/19 02:27:59;;;;;;;38.20;27.42;;;;;;;16.26;100.00;101281.00;5062468;28;20025;-67
2022/08/19 02:30:25;;;;;;;35.00;28.02;;;;;;;16.25;100.00;101273.78;5054043;28;20012;-68
2022/08/19 02:32:51;;;;;;;31.52;24.05;;;;;;;16.19;100.00;101274.81;5061821;28;20021;-66
2022/08/19 02:35:17;;;;;;;26.85;20.65;;;;;;;16.05;100.00;101277.97;5062402;28;20591;-68
2022/08/19 02:40:28;;;;;;;31.60;23.80;;;;;;;15.98;100.00;101296.72;5062646;28;20279;-68
2022/08/19 02:42:54;;;;;;;34.30;24.67;;;;;;;15.96;100.00;101281.44;5062286;28;20059;-67
2022/08/19 02:45:19;;;;;;;31.52;25.58;;;;;;;15.98;100.00;101274.56;5062565;28;20028;-68
2022/08/19 02:47:45;;;;;;;25.98;21.58;;;;;;;15.95;100.00;101279.75;5056237;28;20360;-68
2022/08/19 02:50:10;;;;;;;27.48;21.75;;;;;;;15.88;100.00;101291.03;5041314;28;20123;-68
2022/08/19 02:52:36;;;;;;;30.55;23.45;;;;;;;15.78;99.93;101293.66;5041881;28;20025;-68
2022/08/19 02:55:01;;;;;;;30.13;23.92;;;;;;;15.77;100.00;101294.75;5042215;28;20047;-67
2022/08/19 02:57:27;;;;;;;31.05;23.30;;;;;;;15.73;100.00;101299.13;5042373;28;20029;-67
2022/08/19 02:59:53;;;;;;;33.28;25.25;;;;;;;15.74;100.00;101298.03;5041615;28;20025;-68
2022/08/19 03:02:18;;;;;;;31.52;25.85;;;;;;;15.76;100.00;101298.59;5041413;28;20598;-68
2022/08/19 03:04:44;;;;;;;32.05;25.30;;;;;;;15.82;100.00;101295.66;5028890;28;20028;-67
2022/08/19 03:07:13;;;;;;;33.03;26.38;;;;;;;15.83;100.00;101293.72;5040539;28;20364;-68
2022/08/19 03:09:39;;;;;;;31.90;25.60;;;;;;;15.86;100.00;101284.06;5041019;28;20116;-68
2022/08/19 03:12:05;;;;;;;36.25;26.63;;;;;;;15.88;100.00;101281.88;5040691;28;20104;-67
2022/08/19 03:14:32;;;;;;;32.03;25.92;;;;;;;15.83;100.00;101275.19;5041120;28;20029;-67
2022/08/19 03:16:57;;;;;;;33.15;22.98;;;;;;;15.75;100.00;101278.38;5040090;28;20021;-68
2022/08/19 03:19:23;;;;;;;26.33;21.15;;;;;;;15.73;100.00;101283.34;5040779;28;20039;-67
2022/08/19 03:21:49;;;;;;;34.88;26.73;;;;;;;15.70;100.00;101286.59;5058100;28;20056;-68
2022/08/19 03:24:17;;;;;;;32.85;26.55;;;;;;;15.76;100.00;101295.81;5061481;28;20040;-67
2022/08/19 03:26:45;;;;;;;36.75;28.00;;;;;;;15.81;100.00;101295.91;5062198;28;20112;-68
2022/08/19 03:29:11;;;;;;;32.65;26.60;;;;;;;15.85;100.00;101291.53;5061650;28;20124;-68
2022/08/19 03:31:38;;;;;;;34.40;27.77;;;;;;;15.88;100.00;101284.66;5060580;28;20775;-68
2022/08/19 03:34:03;;;;;;;31.65;24.65;;;;;;;15.83;100.00;101283.47;5061616;28;20044;-68
2022/08/19 03:36:28;;;;;;;30.88;22.48;;;;;;;15.73;100.00;101285.28;5061287;28;20336;-68
2022/08/19 03:38:56;;;;;;;31.77;22.02;;;;;;;15.63;100.00;101282.31;5053924;28;20039;-68
2022/08/19 03:41:24;;;;;;;28.25;22.60;;;;;;;15.51;100.00;101285.16;5041386;28;20028;-68
2022/08/19 03:43:49;;;;;;;;;;;;;;;15.65;100.00;101282.91;5042671;28;20104;-68
2022/08/19 03:46:23;;;;;;;30.45;23.65;;;;;;;15.49;100.00;101282.66;5040491;28;20415;-67
2022/08/19 03:48:54;;;;;;;31.90;24.33;;;;;;;15.50;100.00;101280.72;5042257;28;20032;-68
2022/08/19 03:51:22;;;;;;;33.80;26.67;;;;;;;15.52;100.00;101275.78;5041402;28;20024;-68
2022/08/19 03:53:48;;;;;;;35.83;26.65;;;;;;;15.53;100.00;101272.75;5041965;28;20055;-68
2022/08/19 03:56:14;;;;;;;31.27;23.85;;;;;;;15.48;100.00;101274.63;5041284;28;20024;-68
2022/08/19 03:58:40;;;;;;;28.90;21.63;;;;;;;15.41;100.00;101277.56;5052764;28;20303;-68
2022/08/19 04:01:11;;;;;;;29.15;22.20;;;;;;;15.29;100.00;101274.03;5059652;28;20032;-68
2022/08/19 04:03:37;;;;;;;28.38;21.88;;;;;;;15.27;100.00;101267.91;5060471;28;20020;-68
2022/08/19 04:06:14;;;;;;;25.77;19.73;;;;;;;15.21;100.00;101274.47;5059812;28;20490;-67
2022/08/19 04:08:41;;;;;;;29.03;22.40;;;;;;;15.14;100.00;101282.91;5046617;28;20033;-68
2022/08/19 04:11:08;;;;;;;32.53;25.33;;;;;;;15.19;100.00;101285.75;5040373;28;20707;-67
2022/08/19 04:13:34;;;;;;;31.08;25.60;;;;;;;15.22;100.00;101284.44;5040409;28;20049;-68
2022/08/19 04:15:59;;;;;;;32.05;26.42;;;;;;;15.27;100.00;101282.59;5055073;28;20070;-68
2022/08/19 04:18:25;;;;;;;29.73;24.50;;;;;;;15.26;100.00;101280.09;5060343;28;20028;-68
2022/08/19 04:20:50;;;;;;;25.45;22.13;;;;;;;15.18;100.00;101275.78;5060865;28;20020;-65
2022/08/19 04:23:16;;;;;;;24.63;21.35;;;;;;;15.11;100.00;101282.59;5061299;28;20025;-68
2022/08/19 04:25:43;;;;;;;26.63;21.05;;;;;;;15.03;100.00;101281.91;5061289;28;20025;-67
2022/08/19 04:28:10;;;;;;;27.10;21.08;;;;;;;15.04;100.00;101278.03;5061108;28;20020;-68
2022/08/19 04:30:49;;;;;;;28.90;21.07;;;;;;;15.03;100.00;101281.06;5060724;28;20119;-68
2022/08/19 04:33:17;;;;;;;26.70;22.08;;;;;;;14.97;100.00;101274.59;5036464;28;20337;-68
2022/08/19 04:35:43;;;;;;;;;;;;;;;15.13;100.00;101270.16;5040573;28;20055;-68
2022/08/19 04:38:10;;;;;;;28.70;21.95;;;;;;;15.00;100.00;101273.25;5041097;28;19919;-67
2022/08/19 04:43:25;;;;;;;26.17;21.02;;;;;;;14.94;100.00;101268.72;5045124;28;20135;-67
2022/08/19 04:45:51;;;;;;;25.05;20.02;;;;;;;14.85;100.00;101271.06;5044724;28;20115;-65
2022/08/19 04:48:23;;;;;;;25.42;20.60;;;;;;;14.83;100.00;101273.22;5043304;28;20494;-68
2022/08/19 04:50:48;;;;;;;26.75;21.33;;;;;;;14.79;100.00;101272.88;5044616;28;20036;-68
2022/08/19 04:53:13;;;;;;;26.27;21.05;;;;;;;14.83;100.00;101273.22;5044440;28;20379;-68
2022/08/19 04:55:41;;;;;;;30.73;23.90;;;;;;;14.90;100.00;101285.00;5044799;28;20029;-67
2022/08/19 04:58:06;;;;;;;29.05;24.88;;;;;;;14.99;100.00;101285.41;5044647;28;20032;-68
2022/08/19 05:00:31;;;;;;;31.38;25.35;;;;;;;15.08;100.00;101280.31;5044184;28;20029;-68
2022/08/19 05:02:57;;;;;;;35.15;29.77;;;;;;;15.16;100.00;101286.28;5043490;28;20045;-67
2022/08/19 05:05:22;;;;;;;31.52;25.98;;;;;;;15.18;100.00;101289.63;5046951;28;20025;-67
2022/08/19 05:07:47;;;;;;;28.92;24.38;;;;;;;15.21;100.00;101289.13;5044888;28;20079;-68
2022/08/19 05:10:13;;;;;;;31.05;22.98;;;;;;;15.21;100.00;101296.59;5044310;28;20055;-68
2022/08/19 05:12:38;;;;;;;26.98;21.95;;;;;;;15.16;100.00;101293.75;5043846;28;20112;-68
2022/08/19 05:15:08;;;;;;;27.48;20.73;;;;;;;15.10;100.00;101303.84;5044212;28;20103;-68
2022/08/19 05:17:33;;;;;;;28.17;19.48;;;;;;;15.07;100.00;101300.78;5043230;28;20025;-68
2022/08/19 05:22:44;;;;;;;23.35;19.33;;;;;;;15.10;100.00;101308.56;5043931;28;20047;-68
2022/08/19 05:25:14;;;;;;;28.00;21.65;;;;;;;15.15;100.00;101314.19;5043968;28;20931;-68
2022/08/19 05:27:40;;;;;;;32.28;27.45;;;;;;;15.22;100.00;101318.47;5044383;28;20017;-68
2022/08/19 05:30:06;;;;;;;40.13;30.33;;;;;;;15.37;100.00;101317.91;5043570;28;20612;-68
2022/08/19 05:32:31;;;;;;;38.63;31.40;;;;;;;15.44;100.00;101326.88;5043164;28;20032;-68
2022/08/19 05:34:56;;;;;;;62.25;44.92;;;;;;;15.62;100.00;101328.56;5043412;28;20021;-68
2022/08/19 05:37:22;;;;;;;66.43;46.90;;;;;;;15.75;100.00;101328.22;5043110;28;20028;-67
2022/08/19 05:39:48;;;;;;;71.93;48.50;;;;;;;15.85;100.00;101332.25;5044295;28;20090;-68
2022/08/19 05:42:14;;;;;;;75.82;50.45;;;;;;;15.95;100.00;101333.22;5062401;28;20090;-68
2022/08/19 05:44:44;;;;;;;70.85;49.13;;;;;;;16.01;100.00;101337.75;5062994;28;20475;-68
2022/08/19 05:47:11;;;;;;;78.25;51.85;;;;;;;16.08;100.00;101335.66;5051515;28;20689;-68
2022/08/19 05:49:37;;;;;;;79.68;52.35;;;;;;;16.13;100.00;101332.13;5042223;28;20025;-70
2022/08/19 05:52:05;;;;;;;75.78;50.70;;;;;;;16.19;100.00;101335.78;5040694;28;20083;-70
2022/08/19 05:54:31;;;;;;;76.90;51.03;;;;;;;16.23;100.00;101334.19;5042766;28;20025;-70
2022/08/19 05:56:57;;;;;;;78.50;52.13;;;;;;;16.28;100.00;101337.88;5041556;28;20029;-69
2022/08/19 05:59:23;;;;;;;83.22;53.42;;;;;;;16.34;100.00;101338.75;5043227;28;20029;-70
2022/08/19 06:01:50;;;;;;;85.97;56.22;;;;;;;16.38;100.00;101326.06;5042802;28;20033;-71
2022/08/19 06:04:18;;;;;;;79.63;53.70;;;;;;;16.46;100.00;101324.78;5043400;28;20033;-70
2022/08/19 06:06:43;;;;;;;83.38;57.38;;;;;;;16.50;100.00;101326.78;5043387;28;20032;-69
2022/08/19 06:09:10;;;;;;;84.60;56.80;;;;;;;16.54;100.00;101319.63;5024895;28;20491;-69
2022/08/19 06:11:43;;;;;;;88.03;57.53;;;;;;;16.57;100.00;101323.78;5042599;28;20044;-70
2022/08/19 06:14:11;;;;;;;88.88;54.75;;;;;;;16.61;100.00;101319.41;5054943;28;20418;-70
2022/08/19 06:16:39;;;;;;;88.13;57.40;;;;;;;16.63;100.00;101322.78;5060882;28;20029;-69
2022/08/19 06:19:06;;;;;;;;;;;;;;;16.74;100.00;101315.44;5062016;28;20291;-70
2022/08/19 06:21:31;;;;;;;88.93;54.63;;;;;;;16.73;100.00;101314.59;5061342;28;19913;-69
2022/08/19 06:23:58;;;;;;;85.13;55.28;;;;;;;16.78;100.00;101313.81;5061857;28;20027;-69
2022/08/19 06:26:24;;;;;;;83.50;54.55;;;;;;;16.81;100.00;101316.91;5061161;28;20068;-69
2022/08/19 06:28:50;;;;;;;84.68;55.15;;;;;;;16.85;100.00;101317.22;5062409;28;20036;-69
2022/08/19 06:31:17;;;;;;;88.78;55.97;;;;;;;16.88;100.00;101315.84;5050589;28;20025;-69
2022/08/19 06:33:44;;;;;;;81.30;53.05;;;;;;;16.95;100.00;101320.09;5042182;28;20475;-69
2022/08/19 06:36:18;;;;;;;79.20;51.53;;;;;;;16.99;100.00;101317.66;5041435;28;20029;-70
2022/08/19 06:38:44;;;;;;;79.85;51.85;;;;;;;17.03;100.00;101311.31;5042684;28;20078;-69
2022/08/19 06:41:09;;;;;;;79.22;51.83;;;;;;;17.10;100.00;101313.88;5041700;28;20020;-70
2022/08/19 06:43:35;;;;;;;80.65;52.50;;;;;;;17.18;100.00;101312.53;5042598;28;20593;-70
2022/08/19 06:46:03;;;;;;;76.47;50.63;;;;;;;17.25;100.00;101313.19;5041439;28;20027;-70
2022/08/19 06:48:28;;;;;;;74.60;52.38;;;;;;;17.30;100.00;101313.22;5049303;28;20083;-70
2022/08/19 06:50:54;;;;;;;78.85;51.60;;;;;;;17.37;100.00;101314.66;5061453;28;20028;-69
2022/08/19 06:53:19;;;;;;;76.75;49.30;;;;;;;17.46;100.00;101325.28;5062900;28;20028;-69
2022/08/19 06:55:45;;;;;;;75.23;49.07;;;;;;;17.54;100.00;101313.72;5044270;28;20028;-69
2022/08/19 06:58:10;;;;;;;78.72;51.08;;;;;;;17.62;100.00;101325.13;5061428;28;20277;-69
2022/08/19 07:00:37;;;;;;;82.35;52.08;;;;;;;17.74;100.00;101325.00;5061860;28;20099;-69
2022/08/19 07:03:02;;;;;;;74.47;49.10;;;;;;;17.82;100.00;101320.88;5058067;28;20040;-69
2022/08/19 07:05:28;;;;;;;81.68;50.20;;;;;;;17.85;100.00;101317.56;5041450;28;20496;-70
2022/08/19 07:07:53;;;;;;;78.88;50.30;;;;;;;18.07;100.00;101312.69;5041793;28;20009;-69
2022/08/19 07:10:19;;;;;;;73.90;50.25;;;;;;;18.57;98.92;101318.75;5042201;28;20455;-69
2022/08/19 07:12:44;;;;;;;80.43;51.03;;;;;;;18.78;96.08;101326.09;5041746;28;20017;-70
2022/08/19 07:15:10;;;;;;;74.97;51.75;;;;;;;18.72;94.84;101318.84;5041285;28;20036;-69
2022/08/19 07:17:38;;;;;;;76.47;50.15;;;;;;;18.68;95.19;101326.06;5041071;28;20037;-70
2022/08/19 07:20:06;;;;;;;75.53;50.63;;;;;;;18.65;94.61;101329.34;5041438;28;20028;-69
2022/08/19 07:22:32;;;;;;;79.68;52.03;;;;;;;18.57;94.89;101332.66;5052613;28;20028;-70
2022/08/19 07:24:57;;;;;;;81.65;53.78;;;;;;;18.46;96.25;101339.31;5061628;28;20036;-69
2022/08/19 07:27:23;;;;;;;89.85;56.92;;;;;;;18.42;95.95;101347.34;5044577;28;20079;-69
2022/08/19 07:29:48;;;;;;;88.40;55.40;;;;;;;18.49;97.60;101347.91;5041836;28;20070;-69
2022/08/19 07:32:13;;;;;;;87.10;57.27;;;;;;;18.46;96.56;101347.66;5040675;28;20276;-69
2022/08/19 07:34:38;;;;;;;90.38;58.47;;;;;;;18.48;97.53;101345.41;5041700;28;20774;-69
2022/08/19 07:37:05;;;;;;;89.90;57.42;;;;;;;18.50;97.59;101345.97;5040635;28;20093;-69
2022/08/19 07:39:33;;;;;;;81.82;56.55;;;;;;;18.50;96.11;101348.75;5046641;28;20414;-69
2022/08/19 07:42:01;;;;;;;80.15;52.70;;;;;;;18.60;96.68;101354.38;5040683;28;20050;-68
2022/08/19 07:44:27;;;;;;;80.00;51.92;;;;;;;18.61;96.29;101345.78;5040286;28;20021;-68
2022/08/19 07:46:55;;;;;;;84.18;52.78;;;;;;;18.67;96.68;101347.44;5039435;28;20021;-69
2022/08/19 07:49:21;;;;;;;86.32;55.53;;;;;;;18.68;95.30;101351.09;5040599;28;20025;-68
2022/08/19 07:51:49;;;;;;;86.35;55.80;;;;;;;18.78;96.40;101364.22;5040432;28;20039;-69
2022/08/19 07:54:15;;;;;;;83.18;53.53;;;;;;;18.76;94.80;101363.66;5041117;28;20013;-69
2022/08/19 07:56:41;;;;;;;75.63;51.33;;;;;;;18.88;94.57;101364.25;5040061;28;20082;-69
2022/08/19 07:59:07;;;;;;;77.68;51.13;;;;;;;18.89;94.81;101368.69;5040848;28;20033;-69
2022/08/19 08:01:33;;;;;;;77.85;50.72;;;;;;;18.94;94.46;101374.28;5040519;28;20048;-69
2022/08/19 08:09:30;;;;;;;70.63;49.42;;;;;;;19.03;94.22;101377.38;5041590;28;20059;-70
2022/08/19 08:12:05;;;;;;;76.30;50.00;;;;;;;19.01;93.60;101372.09;5040517;28;20111;-69
2022/08/19 08:14:41;;;;;;;76.43;49.95;;;;;;;18.99;93.48;101373.47;5058385;28;20062;-69
2022/08/19 08:17:08;;;;;;;72.53;50.83;;;;;;;19.00;93.91;101375.13;5044262;28;20254;-69
2022/08/19 08:19:34;;;;;;;76.25;50.83;;;;;;;18.97;94.53;101386.81;5045410;28;20028;-68
2022/08/19 08:22:01;;;;;;;82.20;53.55;;;;;;;18.97;94.74;101384.03;5044314;28;20017;-67
2022/08/19 08:24:28;;;;;;;70.88;50.65;;;;;;;19.01;94.09;101376.78;5044822;28;20108;-67
2022/08/19 08:26:54;;;;;;;71.93;49.80;;;;;;;19.08;93.77;101381.00;5045170;28;20383;-68
2022/08/19 08:29:19;;;;;;;68.13;48.15;;;;;;;19.11;93.28;101380.47;5045688;28;20086;-68
2022/08/19 08:31:46;;;;;;;71.38;49.53;;;;;;;19.13;93.93;101388.53;5051387;28;20025;-68
2022/08/19 08:34:13;;;;;;;65.82;47.20;;;;;;;19.22;93.21;101399.97;5064966;28;20033;-67
2022/08/19 08:36:41;;;;;;;69.47;49.63;;;;;;;19.22;92.61;101400.81;5064396;28;20029;-67
2022/08/19 08:39:14;;;;;;;66.25;47.70;;;;;;;19.23;92.18;101408.06;5064515;28;20551;-67
2022/08/19 08:42:04;;;;;;;67.00;47.33;;;;;;;19.35;92.82;101405.84;5065158;28;20039;-67
2022/08/19 08:45:01;;;;;;;66.68;46.58;;;;;;;19.31;92.37;101406.66;5064750;28;20043;-67
2022/08/19 08:47:31;;;;;;;59.10;45.03;;;;;;;19.30;91.73;101416.13;5040232;28;20070;-67
2022/08/19 08:50:35;;;;;;;65.38;45.08;;;;;;;19.34;92.15;101418.09;5043996;28;20032;-67
2022/08/19 08:53:01;;;;;;;65.53;47.25;;;;;;;19.28;92.70;101421.16;5040878;28;20064;-67
2022/08/19 08:55:29;;;;;;;65.97;47.90;;;;;;;19.22;93.03;101413.91;5044203;28;20112;-67
2022/08/19 08:58:03;;;;;;;65.95;46.67;;;;;;;19.26;92.94;101415.00;5044452;28;20396;-67
2022/08/19 09:00:31;;;;;;;59.80;43.70;;;;;;;19.45;91.84;101417.00;5043361;28;20471;-67
2022/08/19 09:02:58;;;;;;;58.72;42.58;;;;;;;19.69;89.27;101413.72;5043998;28;20454;-67
2022/08/19 09:05:30;;;;;;;55.30;40.85;;;;;;;19.95;88.46;101403.41;5043445;28;20021;-67
2022/08/19 09:08:30;;;;;;;56.60;42.08;;;;;;;20.07;88.35;101406.75;5044371;28;20403;-67
2022/08/19 09:10:57;;;;;;;57.35;41.92;;;;;;;20.10;87.99;101400.59;5043651;28;20056;-67
2022/08/19 09:13:44;;;;;;;59.40;44.40;;;;;;;20.11;86.83;101407.84;5044423;28;20112;-67
2022/08/19 09:16:20;;;;;;;62.63;44.25;;;;;;;20.26;86.73;101406.16;5042636;28;20452;-67
2022/08/19 09:18:48;;;;;;;58.13;43.85;;;;;;;20.31;86.41;101400.56;5044793;28;20033;-67
2022/08/19 09:21:15;;;;;;;63.10;45.25;;;;;;;20.27;85.68;101405.03;5043226;28;20056;-67
2022/08/19 09:23:42;;;;;;;62.25;44.38;;;;;;;20.18;86.29;101404.78;5043753;28;20036;-67
2022/08/19 09:26:13;;;;;;;62.70;46.35;;;;;;;20.09;87.41;101409.25;5043333;28;20017;-67
2022/08/19 09:28:42;;;;;;;69.45;48.00;;;;;;;20.00;87.79;101417.34;5043521;28;20188;-67
2022/08/19 09:31:07;;;;;;;64.10;47.88;;;;;;;19.92;88.20;101423.47;5042476;28;20435;-68
2022/08/19 09:33:32;;;;;;;61.78;47.50;;;;;;;19.95;89.16;101422.91;5044060;28;20025;-67
2022/08/19 09:36:09;;;;;;;69.47;48.65;;;;;;;19.93;87.83;101423.22;5042764;28;20029;-67
2022/08/19 09:38:36;;;;;;;68.80;48.55;;;;;;;19.90;88.51;101422.91;5043918;28;20319;-67
2022/08/19 09:41:06;;;;;;;63.92;47.00;;;;;;;19.90;88.25;101420.13;5044598;28;20025;-67
2022/08/19 09:43:36;;;;;;;64.18;46.42;;;;;;;20.06;88.52;101421.78;5062558;28;20068;-67
2022/08/19 09:46:06;;;;;;;63.90;46.78;;;;;;;20.19;87.87;101417.59;5061867;28;20024;-67
2022/08/19 09:48:32;;;;;;;66.20;46.95;;;;;;;20.27;86.76;101422.59;5062996;28;20021;-67
2022/08/19 09:51:07;;;;;;;65.75;48.65;;;;;;;20.40;86.39;101415.59;5043457;28;20536;-67
2022/08/19 09:53:33;;;;;;;60.45;47.80;;;;;;;20.55;84.65;101426.75;5063267;28;20020;-67
2022/08/19 09:55:58;;;;;;;64.22;47.45;;;;;;;20.66;84.46;101420.00;5043989;28;20117;-67
2022/08/19 09:58:27;;;;;;;66.40;48.78;;;;;;;20.91;85.35;101427.47;5042260;28;20028;-67
2022/08/19 10:00:54;;;;;;;66.80;46.75;;;;;;;21.03;82.84;101423.50;5059825;28;20617;-67
2022/08/19 10:03:19;;;;;;;64.75;47.95;;;;;;;21.08;82.54;101421.50;5063805;28;20115;-67
2022/08/19 10:05:47;;;;;;;60.70;47.20;;;;;;;21.16;81.33;101428.47;5062461;28;20124;-67
2022/08/19 10:08:14;;;;;;;59.72;45.13;;;;;;;21.57;79.82;101423.47;5062783;28;20043;-67
2022/08/19 10:10:43;;;;;;;59.70;46.05;;;;;;;21.95;78.11;101432.13;5063123;28;20028;-67
2022/08/19 10:13:09;;;;;;;58.25;43.45;;;;;;;22.23;76.04;101430.50;5062703;28;20024;-67
2022/08/19 10:15:34;;;;;;;57.17;43.72;;;;;;;22.18;75.91;101424.94;5054654;28;20443;-67
2022/08/19 10:18:00;;;;;;;58.30;45.00;;;;;;;22.27;76.88;101426.81;5042290;28;20396;-67
2022/08/19 10:20:26;;;;;;;57.05;45.58;;;;;;;22.31;75.66;101409.44;5041017;28;20058;-67
2022/08/19 10:22:51;;;;;;;57.42;43.72;;;;;;;22.24;75.22;101423.75;5041907;28;20321;-67
2022/08/19 10:25:17;;;;;;;56.25;42.15;;;;;;;22.11;75.57;101422.50;5042512;28;20029;-67
2022/08/19 10:27:42;;;;;;;58.97;43.63;;;;;;;21.87;76.10;101418.78;5041264;28;20067;-67
2022/08/19 10:30:08;;;;;;;57.10;43.17;;;;;;;21.65;77.89;101417.28;5040798;28;20021;-66
2022/08/19 10:32:34;;;;;;;55.15;42.60;;;;;;;21.53;78.39;101419.59;5042320;28;20040;-67
2022/08/19 10:34:59;;;;;;;55.22;41.33;;;;;;;21.50;79.06;101428.56;5041275;28;20021;-67
2022/08/19 10:37:24;;;;;;;48.45;38.90;;;;;;;21.49;78.99;101424.94;5041587;28;20657;-67
2022/08/19 10:39:50;;;;;;;49.88;40.30;;;;;;;21.40;79.39;101423.06;5043185;28;20036;-67
2022/08/19 10:42:16;;;;;;;56.88;41.92;;;;;;;21.37;79.15;101423.63;5043047;28;20388;-67
2022/08/19 10:44:42;;;;;;;55.70;42.80;;;;;;;21.27;78.55;101429.22;5042269;28;20067;-67
2022/08/19 10:47:08;;;;;;;57.22;43.72;;;;;;;21.22;79.07;101421.72;5041523;28;20013;-67
2022/08/19 10:52:32;;;;;;;54.42;41.30;;;;;;;21.15;79.01;101422.03;5042781;28;20531;-67
2022/08/19 10:52:33;;;;;;;54.50;42.58;;;;;;;21.13;81.06;101421.47;5057246;28;20067;-67
2022/08/19 10:57:44;;;;;;;53.67;40.95;;;;;;;21.27;78.68;101413.31;5061344;28;20039;-67
2022/08/19 11:00:10;;;;;;;55.30;42.65;;;;;;;21.42;78.15;101416.03;5060604;28;20025;-66
2022/08/19 11:02:36;;;;;;;60.17;42.08;;;;;;;21.66;77.77;101407.75;5060512;28;20036;-67
2022/08/19 11:05:01;;;;;;;56.17;41.37;;;;;;;21.84;77.46;101411.78;5061001;28;20017;-67
2022/08/19 11:07:26;;;;;;;54.00;44.13;;;;;;;21.79;75.71;101409.03;5060729;28;20267;-68
2022/08/19 11:09:52;;;;;;;52.90;40.50;;;;;;;21.82;76.23;101414.06;5040575;28;20021;-67
2022/08/19 11:12:17;;;;;;;53.83;40.90;;;;;;;21.79;75.78;101409.03;5041282;28;20368;-67
2022/08/19 11:14:42;;;;;;;52.80;40.50;;;;;;;21.75;74.93;101403.22;5041408;28;20454;-67
2022/08/19 11:17:08;;;;;;;48.55;39.65;;;;;;;21.81;74.90;101404.00;5039767;28;20029;-68
2022/08/19 11:19:34;;;;;;;53.90;40.80;;;;;;;21.86;75.63;101397.53;5041041;28;20086;-67
2022/08/19 11:22:01;;;;;;;51.50;38.75;;;;;;;22.07;74.45;101399.00;5040351;28;20091;-68
2022/08/19 11:24:27;;;;;;;54.67;40.57;;;;;;;22.31;74.10;101404.69;5041411;28;20052;-69